FLT555 VNKT-VNLK
Flight info
| Callsign | FLT555 |
|---|---|
| Flight time | 0h 30m |
| Altitude | 150 |
| Route | KIMTI DST VNKL |
| Aircraft | C408/L-VGD/C |
Departure
| Time | 2026-05-08 05:02 |
|---|---|
| Airport | Tribhuvan International Airport (VNKT) |
Arrival
| Time | 2026-05-08 05:33 |
|---|---|
| Airport | Tenzing-Hillary Airport (VNLK) |
| Time | Latitude | Longitude | Altitude | Speed | Heading |
|---|---|---|---|---|---|
| 2026-05-08 04:47 | 27.70534 | 85.36004 | 4384 ft | 0 kts | 247° |
| 2026-05-08 04:57 | 27.70499 | 85.35992 | 4367 ft | 11 kts | 163° |
| 2026-05-08 04:57 | 27.70462 | 85.36004 | 4374 ft | 0 kts | 162° |
| 2026-05-08 04:57 | 27.70461 | 85.36005 | 4374 ft | 1 kts | 162° |
| 2026-05-08 04:58 | 27.70415 | 85.36021 | 4381 ft | 13 kts | 162° |
| 2026-05-08 04:58 | 27.70305 | 85.36067 | 4380 ft | 21 kts | 161° |
| 2026-05-08 04:58 | 27.70127 | 85.36010 | 4375 ft | 34 kts | 201° |
| 2026-05-08 04:58 | 27.69880 | 85.35896 | 4368 ft | 31 kts | 205° |
| 2026-05-08 04:59 | 27.69686 | 85.35808 | 4363 ft | 35 kts | 201° |
| 2026-05-08 04:59 | 27.69470 | 85.35716 | 4353 ft | 29 kts | 204° |
| 2026-05-08 04:59 | 27.69285 | 85.35628 | 4352 ft | 30 kts | 203° |
| 2026-05-08 04:59 | 27.69162 | 85.35573 | 4347 ft | 4 kts | 201° |
| 2026-05-08 05:00 | 27.69112 | 85.35552 | 4341 ft | 11 kts | 189° |
| 2026-05-08 05:00 | 27.69061 | 85.35600 | 4345 ft | 2 kts | 113° |
| 2026-05-08 05:00 | 27.69055 | 85.35618 | 4341 ft | 9 kts | 99° |
| 2026-05-08 05:00 | 27.69080 | 85.35651 | 4346 ft | 0 kts | 21° |
| 2026-05-08 05:01 | 27.69081 | 85.35652 | 4347 ft | 3 kts | 21° |
| 2026-05-08 05:01 | 27.69304 | 85.35754 | 4349 ft | 65 kts | 22° |
| 2026-05-08 05:01 | 27.69896 | 85.36031 | 4376 ft | 115 kts | 26° |
| 2026-05-08 05:02 | 27.70659 | 85.36398 | 4889 ft | 107 kts | 22° |
| 2026-05-08 05:02 | 27.71322 | 85.36667 | 5382 ft | 108 kts | 24° |
| 2026-05-08 05:02 | 27.72107 | 85.36990 | 5649 ft | 120 kts | 26° |
| 2026-05-08 05:02 | 27.72708 | 85.37454 | 6350 ft | 91 kts | 33° |
| 2026-05-08 05:03 | 27.73161 | 85.37935 | 6701 ft | 96 kts | 49° |
| 2026-05-08 05:03 | 27.73549 | 85.38527 | 7141 ft | 86 kts | 63° |
| 2026-05-08 05:03 | 27.73812 | 85.39095 | 7482 ft | 82 kts | 68° |
| 2026-05-08 05:03 | 27.73966 | 85.39719 | 7801 ft | 76 kts | 72° |
| 2026-05-08 05:04 | 27.73932 | 85.40145 | 6841 ft | 29 kts | 122° |
| 2026-05-08 05:04 | 27.73630 | 85.41225 | 6527 ft | 135 kts | 98° |
| 2026-05-08 05:04 | 27.73416 | 85.42182 | 7182 ft | 124 kts | 109° |
| 2026-05-08 05:04 | 27.72918 | 85.43287 | 5755 ft | 209 kts | 130° |
| 2026-05-08 05:05 | 27.72035 | 85.44448 | 5908 ft | 184 kts | 130° |
| 2026-05-08 05:05 | 27.71362 | 85.45640 | 6044 ft | 171 kts | 116° |
| 2026-05-08 05:05 | 27.70827 | 85.46829 | 6183 ft | 166 kts | 123° |
| 2026-05-08 05:05 | 27.70224 | 85.47866 | 6651 ft | 157 kts | 125° |
| 2026-05-08 05:06 | 27.69535 | 85.48794 | 7090 ft | 153 kts | 133° |
| 2026-05-08 05:06 | 27.68817 | 85.49724 | 7197 ft | 165 kts | 131° |
| 2026-05-08 05:06 | 27.67930 | 85.50754 | 7183 ft | 168 kts | 133° |
| 2026-05-08 05:06 | 27.67143 | 85.51737 | 7435 ft | 174 kts | 133° |
| 2026-05-08 05:07 | 27.66290 | 85.52703 | 7668 ft | 178 kts | 135° |
| 2026-05-08 05:07 | 27.65486 | 85.53640 | 8370 ft | 152 kts | 132° |
| 2026-05-08 05:07 | 27.64719 | 85.54574 | 8375 ft | 178 kts | 133° |
| 2026-05-08 05:07 | 27.63963 | 85.55647 | 8772 ft | 169 kts | 119° |
| 2026-05-08 05:08 | 27.63555 | 85.56871 | 9151 ft | 169 kts | 108° |
| 2026-05-08 05:08 | 27.63152 | 85.58150 | 9394 ft | 174 kts | 111° |
| 2026-05-08 05:08 | 27.62724 | 85.59384 | 9857 ft | 165 kts | 111° |
| 2026-05-08 05:08 | 27.62309 | 85.60611 | 10111 ft | 172 kts | 110° |
| 2026-05-08 05:09 | 27.61913 | 85.61901 | 10345 ft | 174 kts | 108° |
| 2026-05-08 05:09 | 27.61587 | 85.63189 | 10685 ft | 170 kts | 104° |
| 2026-05-08 05:09 | 27.61288 | 85.64506 | 10868 ft | 177 kts | 107° |
| 2026-05-08 05:09 | 27.60908 | 85.65823 | 11159 ft | 174 kts | 109° |
| 2026-05-08 05:10 | 27.60571 | 85.67130 | 11449 ft | 174 kts | 104° |
| 2026-05-08 05:10 | 27.59669 | 85.69949 | 11122 ft | 197 kts | 115° |
| 2026-05-08 05:10 | 27.59145 | 85.71376 | 11215 ft | 194 kts | 110° |
| 2026-05-08 05:11 | 27.58764 | 85.72831 | 11342 ft | 194 kts | 104° |
| 2026-05-08 05:11 | 27.58421 | 85.74294 | 11483 ft | 193 kts | 107° |
| 2026-05-08 05:11 | 27.58004 | 85.75685 | 11792 ft | 182 kts | 111° |
| 2026-05-08 05:11 | 27.57557 | 85.77046 | 11917 ft | 187 kts | 109° |
| 2026-05-08 05:12 | 27.57152 | 85.78408 | 12213 ft | 183 kts | 109° |
| 2026-05-08 05:12 | 27.56757 | 85.79785 | 12420 ft | 186 kts | 108° |
| 2026-05-08 05:12 | 27.56395 | 85.81192 | 12600 ft | 188 kts | 107° |
| 2026-05-08 05:12 | 27.56026 | 85.82625 | 12753 ft | 189 kts | 107° |
| 2026-05-08 05:13 | 27.55734 | 85.84057 | 13049 ft | 185 kts | 102° |
| 2026-05-08 05:13 | 27.55515 | 85.85478 | 13356 ft | 183 kts | 101° |
| 2026-05-08 05:13 | 27.55289 | 85.86874 | 13617 ft | 184 kts | 102° |
| 2026-05-08 05:13 | 27.55059 | 85.88309 | 13870 ft | 186 kts | 101° |
| 2026-05-08 05:14 | 27.54867 | 85.89757 | 14127 ft | 187 kts | 99° |
| 2026-05-08 05:14 | 27.54738 | 85.91216 | 14362 ft | 188 kts | 96° |
| 2026-05-08 05:14 | 27.54699 | 85.92698 | 14585 ft | 190 kts | 91° |
| 2026-05-08 05:14 | 27.54757 | 85.94186 | 14812 ft | 191 kts | 91° |
| 2026-05-08 05:15 | 27.54645 | 85.95688 | 14963 ft | 193 kts | 101° |
| 2026-05-08 05:15 | 27.54478 | 85.96667 | 15137 ft | 192 kts | 103° |
| 2026-05-08 05:15 | 27.54174 | 85.98170 | 15138 ft | 204 kts | 104° |
| 2026-05-08 05:15 | 27.53860 | 85.99736 | 15213 ft | 206 kts | 106° |
| 2026-05-08 05:16 | 27.53343 | 86.01777 | 15353 ft | 204 kts | 109° |
| 2026-05-08 05:16 | 27.53037 | 86.02817 | 15261 ft | 211 kts | 109° |
| 2026-05-08 05:16 | 27.52585 | 86.04404 | 15242 ft | 213 kts | 109° |
| 2026-05-08 05:16 | 27.52139 | 86.06002 | 15143 ft | 215 kts | 109° |
| 2026-05-08 05:17 | 27.51631 | 86.07581 | 14992 ft | 219 kts | 116° |
| 2026-05-08 05:17 | 27.50864 | 86.09075 | 14936 ft | 217 kts | 125° |
| 2026-05-08 05:17 | 27.50144 | 86.10563 | 14821 ft | 219 kts | 114° |
| 2026-05-08 05:17 | 27.49715 | 86.12153 | 14967 ft | 210 kts | 104° |
| 2026-05-08 05:18 | 27.49434 | 86.13776 | 15007 ft | 209 kts | 101° |
| 2026-05-08 05:18 | 27.49195 | 86.15400 | 14961 ft | 211 kts | 101° |
| 2026-05-08 05:18 | 27.48945 | 86.17038 | 14955 ft | 212 kts | 102° |
| 2026-05-08 05:18 | 27.48662 | 86.18636 | 15066 ft | 208 kts | 103° |
| 2026-05-08 05:19 | 27.48401 | 86.20223 | 15105 ft | 206 kts | 99° |
| 2026-05-08 05:19 | 27.48237 | 86.21818 | 15167 ft | 203 kts | 98° |
| 2026-05-08 05:19 | 27.48083 | 86.23398 | 15238 ft | 204 kts | 97° |
| 2026-05-08 05:19 | 27.47982 | 86.25000 | 15251 ft | 207 kts | 95° |
| 2026-05-08 05:20 | 27.47927 | 86.26643 | 15199 ft | 211 kts | 94° |
| 2026-05-08 05:20 | 27.47906 | 86.28291 | 15209 ft | 212 kts | 92° |
| 2026-05-08 05:20 | 27.47903 | 86.29955 | 15189 ft | 210 kts | 95° |
| 2026-05-08 05:20 | 27.47770 | 86.31568 | 15170 ft | 211 kts | 96° |
| 2026-05-08 05:21 | 27.47695 | 86.33161 | 14918 ft | 197 kts | 94° |
| 2026-05-08 05:21 | 27.47659 | 86.34728 | 14544 ft | 201 kts | 94° |
| 2026-05-08 05:21 | 27.47594 | 86.36287 | 14257 ft | 195 kts | 96° |
| 2026-05-08 05:21 | 27.47490 | 86.37795 | 14035 ft | 193 kts | 95° |
| 2026-05-08 05:22 | 27.47317 | 86.39279 | 13809 ft | 188 kts | 102° |
| 2026-05-08 05:22 | 27.47055 | 86.40696 | 13666 ft | 181 kts | 103° |
| 2026-05-08 05:22 | 27.46808 | 86.42070 | 13649 ft | 177 kts | 102° |
| 2026-05-08 05:22 | 27.46595 | 86.43439 | 13545 ft | 178 kts | 101° |
| 2026-05-08 05:23 | 27.46356 | 86.44817 | 13400 ft | 180 kts | 104° |
| 2026-05-08 05:23 | 27.46033 | 86.46182 | 13291 ft | 180 kts | 107° |
| 2026-05-08 05:23 | 27.45684 | 86.47520 | 13143 ft | 181 kts | 108° |
| 2026-05-08 05:23 | 27.45306 | 86.48865 | 12999 ft | 180 kts | 109° |
| 2026-05-08 05:24 | 27.44922 | 86.50217 | 12851 ft | 181 kts | 109° |
| 2026-05-08 05:24 | 27.44556 | 86.51588 | 12623 ft | 185 kts | 108° |
| 2026-05-08 05:24 | 27.44197 | 86.52970 | 12544 ft | 180 kts | 107° |
| 2026-05-08 05:24 | 27.43888 | 86.54314 | 12463 ft | 178 kts | 105° |
| 2026-05-08 05:25 | 27.43608 | 86.55692 | 12278 ft | 180 kts | 103° |
| 2026-05-08 05:25 | 27.43369 | 86.57074 | 12130 ft | 182 kts | 103° |
| 2026-05-08 05:25 | 27.43158 | 86.58468 | 11962 ft | 181 kts | 100° |
| 2026-05-08 05:25 | 27.42945 | 86.59851 | 11892 ft | 178 kts | 100° |
| 2026-05-08 05:26 | 27.42933 | 86.61217 | 11919 ft | 172 kts | 81° |
| 2026-05-08 05:26 | 27.43389 | 86.62452 | 11897 ft | 176 kts | 56° |
| 2026-05-08 05:26 | 27.44212 | 86.63542 | 11692 ft | 186 kts | 50° |
| 2026-05-08 05:26 | 27.45083 | 86.64618 | 11622 ft | 186 kts | 47° |
| 2026-05-08 05:27 | 27.46004 | 86.65623 | 11599 ft | 184 kts | 43° |
| 2026-05-08 05:27 | 27.47038 | 86.66494 | 11420 ft | 188 kts | 32° |
| 2026-05-08 05:27 | 27.48213 | 86.67081 | 11501 ft | 180 kts | 17° |
| 2026-05-08 05:27 | 27.49412 | 86.67401 | 11561 ft | 174 kts | 13° |
| 2026-05-08 05:28 | 27.50630 | 86.67731 | 11362 ft | 188 kts | 14° |
| 2026-05-08 05:28 | 27.51898 | 86.68064 | 11357 ft | 177 kts | 12° |
| 2026-05-08 05:28 | 27.53047 | 86.68324 | 11059 ft | 169 kts | 11° |
| 2026-05-08 05:28 | 27.54159 | 86.68528 | 10956 ft | 152 kts | 8° |
| 2026-05-08 05:29 | 27.55192 | 86.68694 | 10811 ft | 153 kts | 9° |
| 2026-05-08 05:29 | 27.56227 | 86.68891 | 10747 ft | 148 kts | 9° |
| 2026-05-08 05:29 | 27.57236 | 86.69040 | 10739 ft | 144 kts | 7° |
| 2026-05-08 05:29 | 27.58224 | 86.69165 | 10704 ft | 142 kts | 5° |
| 2026-05-08 05:30 | 27.59209 | 86.69273 | 10635 ft | 143 kts | 8° |
| 2026-05-08 05:30 | 27.60214 | 86.69441 | 10486 ft | 147 kts | 10° |
| 2026-05-08 05:30 | 27.61209 | 86.69599 | 10452 ft | 142 kts | 7° |
| 2026-05-08 05:30 | 27.62180 | 86.69714 | 10436 ft | 140 kts | 7° |
| 2026-05-08 05:31 | 27.63144 | 86.69845 | 10456 ft | 139 kts | 7° |
| 2026-05-08 05:31 | 27.64112 | 86.69981 | 10437 ft | 141 kts | 7° |
| 2026-05-08 05:31 | 27.65079 | 86.70081 | 10403 ft | 142 kts | 4° |
| 2026-05-08 05:31 | 27.66075 | 86.70162 | 10275 ft | 148 kts | 4° |
| 2026-05-08 05:32 | 27.67011 | 86.70438 | 10141 ft | 129 kts | 36° |
| 2026-05-08 05:32 | 27.67657 | 86.71157 | 9674 ft | 132 kts | 51° |
| 2026-05-08 05:32 | 27.68215 | 86.71992 | 9267 ft | 131 kts | 64° |
| 2026-05-08 05:32 | 27.68597 | 86.72775 | 9296 ft | 90 kts | 61° |
| 2026-05-08 05:33 | 27.68754 | 86.73092 | 9481 ft | 15 kts | 60° |
| 2026-05-08 05:33 | 27.68776 | 86.73160 | 9489 ft | 9 kts | 129° |
| 2026-05-08 05:33 | 27.68762 | 86.73185 | 9491 ft | 0 kts | 56° |
| 2026-05-08 05:33 | 27.68764 | 86.73190 | 9491 ft | 0 kts | 68° |